Terminal Aerodrome Forecast
Issued by NWS

Home | Current Version | Previous Version | Text Only | Print | Product List | Glossary Off
Versions: 1 2 3 4 5 6 7 8 9 10 11 12 13 14 15 16 17 18 19 20 21 22 23 24 25 26 27 28 29 30 31 32 33 34 35 36

000
FTUS43 KLOT 251133
TAFMDW
TAF
KMDW 251133Z 2512/2612 26004KT 2SM BR OVC004
      TEMPO 2512/2514 1SM BR
     FM251500 27014G23KT P6SM BKN006 OVC010
     FM251900 26012KT P6SM SCT015 BKN100
     FM260300 29010KT P6SM VCSH BKN060
     FM260900 32010KT P6SM SCT040 SCT100=

USA.gov is the U.S. government's official web portal to all federal, state and local government web resources and services.